createdAt,value
2022-11-20T00:03:15.426Z,14.48
2022-11-20T00:08:01.017Z,11.95
2022-11-20T00:12:46.765Z,9.50
2022-11-20T00:17:32.300Z,10.65
2022-11-20T00:22:20.789Z,9.55
2022-11-20T00:27:05.924Z,12.38
2022-11-20T00:31:51.623Z,9.65
2022-11-20T00:36:38.632Z,10.55
2022-11-20T00:41:27.535Z,10.38
2022-11-20T00:46:16.824Z,8.00
2022-11-20T00:51:02.779Z,8.55
2022-11-20T00:55:55.947Z,8.32
2022-11-20T01:00:43.867Z,7.57
2022-11-20T01:05:28.968Z,6.95
2022-11-20T01:10:14.406Z,7.57
2022-11-20T01:14:59.522Z,6.13
2022-11-20T01:19:47.563Z,6.40
2022-11-20T01:24:32.613Z,8.57
2022-11-20T01:29:20.636Z,7.45
2022-11-20T01:34:07.989Z,6.03
2022-11-20T01:38:59.007Z,5.00
2022-11-20T01:43:44.075Z,5.00
2022-11-20T01:48:33.858Z,5.50
2022-11-20T01:53:22.495Z,7.03
2022-11-20T01:58:10.639Z,6.88
2022-11-20T02:03:00.456Z,7.47
2022-11-20T02:07:46.084Z,5.35
2022-11-20T02:12:43.863Z,5.18
2022-11-20T02:17:32.090Z,5.60
2022-11-20T02:22:22.634Z,4.60
2022-11-20T02:27:13.883Z,4.90
2022-11-20T02:32:02.071Z,5.00
2022-11-20T02:36:48.303Z,4.57
2022-11-20T02:41:38.139Z,5.00
2022-11-20T02:46:26.826Z,4.50
2022-11-20T02:51:12.151Z,4.75
2022-11-20T02:55:57.421Z,4.45
2022-11-20T03:00:42.404Z,5.03
2022-11-20T03:05:30.331Z,4.43
2022-11-20T03:10:15.639Z,4.80
2022-11-20T03:15:00.933Z,4.32
2022-11-20T03:19:46.049Z,3.70
2022-11-20T03:24:34.084Z,3.70
2022-11-20T03:29:19.468Z,4.38
2022-11-20T03:34:05.386Z,3.92
2022-11-20T03:38:50.927Z,3.40
2022-11-20T03:43:39.373Z,3.70
2022-11-20T03:48:24.432Z,3.47
2022-11-20T03:53:09.671Z,4.03
2022-11-20T03:57:54.667Z,3.70
2022-11-20T04:02:42.548Z,4.15
2022-11-20T04:07:27.585Z,4.10
2022-11-20T04:12:12.859Z,3.90
2022-11-20T04:16:57.851Z,3.75
2022-11-20T04:21:45.839Z,3.92
2022-11-20T04:26:32.539Z,3.75
2022-11-20T04:31:19.958Z,3.60
2022-11-20T04:36:06.627Z,3.67
2022-11-20T04:40:54.487Z,3.35
2022-11-20T04:45:39.504Z,3.25
2022-11-20T04:50:24.816Z,3.05
2022-11-20T04:55:11.263Z,3.22
2022-11-20T04:59:59.167Z,3.00
2022-11-20T05:04:44.221Z,2.80
2022-11-20T05:09:29.571Z,2.53
2022-11-20T05:14:14.571Z,2.90
2022-11-20T05:19:02.557Z,3.00
2022-11-20T05:23:48.772Z,2.70
2022-11-20T05:28:35.463Z,2.60
2022-11-20T05:33:21.030Z,2.90
2022-11-20T05:38:08.968Z,2.60
2022-11-20T05:42:54.008Z,2.55
2022-11-20T05:47:39.349Z,3.08
2022-11-20T05:52:24.500Z,3.08
2022-11-20T05:57:12.595Z,2.78
2022-11-20T06:01:57.659Z,2.72
2022-11-20T06:06:42.952Z,2.58
2022-11-20T06:11:27.975Z,2.40
2022-11-20T06:16:18.279Z,2.95
2022-11-20T06:21:05.260Z,21.05
2022-11-20T06:25:50.507Z,6.63
2022-11-20T06:30:35.625Z,7.70
2022-11-20T06:35:23.479Z,4.47
2022-11-20T06:40:10.177Z,3.28
2022-11-20T06:44:55.480Z,4.93
2022-11-20T06:49:41.063Z,6.70
2022-11-20T06:54:28.935Z,5.47
2022-11-20T06:59:14.156Z,3.63
2022-11-20T07:03:59.402Z,3.50
2022-11-20T07:08:44.412Z,6.30
2022-11-20T07:13:33.383Z,5.18
2022-11-20T07:18:18.398Z,2.90
2022-11-20T07:23:03.668Z,2.88
2022-11-20T07:27:48.672Z,2.63
2022-11-20T07:32:37.148Z,2.55
2022-11-20T07:37:22.215Z,2.92
2022-11-20T07:42:07.583Z,3.95
2022-11-20T07:46:52.604Z,6.32
2022-11-20T07:51:40.446Z,4.93
2022-11-20T07:56:25.408Z,5.45
2022-11-20T08:01:11.698Z,3.35
2022-11-20T08:05:56.712Z,3.20
2022-11-20T08:10:44.637Z,3.00
2022-11-20T08:15:29.640Z,3.38
2022-11-20T08:20:15.083Z,2.70
2022-11-20T08:25:00.127Z,1.98
2022-11-20T08:29:48.038Z,2.10
2022-11-20T08:34:33.015Z,2.25
2022-11-20T08:39:18.604Z,1.98
2022-11-20T08:44:05.339Z,7.93
2022-11-20T08:48:53.466Z,4.68
2022-11-20T08:53:38.508Z,14.88
2022-11-20T08:58:23.994Z,6.07
2022-11-20T09:03:09.040Z,1.42
2022-11-20T09:08:00.343Z,5.82
2022-11-20T09:12:45.356Z,5.93
2022-11-20T09:17:30.653Z,11.90
2022-11-20T09:22:15.725Z,8.40
2022-11-20T09:27:05.979Z,10.70
2022-11-20T09:31:50.970Z,5.60
2022-11-20T09:36:36.248Z,13.30
2022-11-20T09:41:40.354Z,5.35
2022-11-20T09:46:35.823Z,2.92
2022-11-20T09:51:36.200Z,3.20
2022-11-20T09:56:23.131Z,8.27
2022-11-20T10:01:15.360Z,5.75
2022-11-20T10:06:05.971Z,9.02
2022-11-20T10:10:58.001Z,4.63
2022-11-20T10:15:53.356Z,4.85
2022-11-20T10:20:48.569Z,5.50
2022-11-20T10:25:42.847Z,5.05
2022-11-20T10:30:28.435Z,5.15
2022-11-20T10:35:24.040Z,6.15
2022-11-20T10:40:24.871Z,5.22
2022-11-20T10:45:23.967Z,5.50
2022-11-20T10:50:20.560Z,4.82
2022-11-20T10:55:29.513Z,5.15
2022-11-20T11:00:18.355Z,5.30
2022-11-20T11:05:14.685Z,5.20
2022-11-20T11:10:01.101Z,4.88
2022-11-20T11:14:51.598Z,4.70
2022-11-20T11:19:39.615Z,4.80
2022-11-20T11:24:43.190Z,4.20
2022-11-20T11:29:31.771Z,3.42
2022-11-20T11:34:18.495Z,4.03
2022-11-20T11:39:08.396Z,4.43
2022-11-20T11:44:09.812Z,4.05
2022-11-20T11:49:00.643Z,3.10
2022-11-20T11:53:46.989Z,4.18
2022-11-20T11:58:45.789Z,3.88
2022-11-20T12:03:38.206Z,3.60
2022-11-20T12:08:29.274Z,3.58
2022-11-20T12:13:25.759Z,3.25
2022-11-20T12:18:19.029Z,3.60
2022-11-20T12:23:13.489Z,3.17
2022-11-20T12:28:23.383Z,3.10
2022-11-20T12:33:31.599Z,3.05
2022-11-20T12:38:36.009Z,2.75
2022-11-20T12:43:37.131Z,3.03
2022-11-20T12:48:46.260Z,2.72
2022-11-20T12:53:41.246Z,2.25
2022-11-20T12:58:36.049Z,2.65
2022-11-20T13:03:55.031Z,3.55
2022-11-20T13:08:43.995Z,2.78
2022-11-20T13:13:36.131Z,2.78
2022-11-20T13:18:22.078Z,2.90
2022-11-20T13:23:09.977Z,3.15
2022-11-20T13:27:59.441Z,3.63
2022-11-20T13:32:53.509Z,2.85
2022-11-20T13:37:40.364Z,2.65
2022-11-20T13:42:31.849Z,3.03
2022-11-20T13:47:25.610Z,2.10
2022-11-20T13:52:37.603Z,3.10
2022-11-20T13:57:51.568Z,2.53
2022-11-20T14:02:37.189Z,2.80
2022-11-20T14:07:24.595Z,2.47
2022-11-20T14:12:21.568Z,2.70
2022-11-20T14:17:20.947Z,2.90
2022-11-20T14:22:20.586Z,2.42
2022-11-20T14:27:07.319Z,2.83
2022-11-20T14:31:56.800Z,3.55
2022-11-20T14:36:46.792Z,3.10
2022-11-20T14:41:33.320Z,3.42
2022-11-20T14:46:19.292Z,2.97
2022-11-20T14:51:04.700Z,3.63
2022-11-20T14:55:59.870Z,3.50
2022-11-20T15:00:44.938Z,3.53
2022-11-20T15:05:49.464Z,4.85
2022-11-20T15:10:34.965Z,3.72
2022-11-20T15:15:27.368Z,3.63
2022-11-20T15:20:17.439Z,3.70
2022-11-20T15:25:02.528Z,3.97
2022-11-20T15:29:47.968Z,4.28
2022-11-20T15:34:35.609Z,4.65
2022-11-20T15:39:20.885Z,4.07
2022-11-20T15:44:06.526Z,4.85
2022-11-20T15:48:57.628Z,4.28
2022-11-20T15:53:46.195Z,4.93
2022-11-20T15:58:31.467Z,5.63
2022-11-20T16:03:17.527Z,6.78
2022-11-20T16:08:06.000Z,6.15
2022-11-20T16:13:08.482Z,6.05
2022-11-20T16:17:53.749Z,8.95
2022-11-20T16:22:38.756Z,19.13
2022-11-20T16:27:24.004Z,18.45
2022-11-20T16:32:13.361Z,15.57
2022-11-20T16:36:58.662Z,8.70
2022-11-20T16:41:44.346Z,8.73
2022-11-20T16:46:32.094Z,8.43
2022-11-20T16:51:20.055Z,8.00
2022-11-20T16:56:14.123Z,7.38
2022-11-20T17:00:59.543Z,8.07
2022-11-20T17:05:44.591Z,13.98
2022-11-20T17:10:32.561Z,25.52
2022-11-20T17:15:17.605Z,25.98
2022-11-20T17:20:03.071Z,30.35
2022-11-20T17:24:48.310Z,25.77
2022-11-20T17:29:41.747Z,26.90
2022-11-20T17:34:27.549Z,22.05
2022-11-20T17:39:13.434Z,19.38
2022-11-20T17:44:00.849Z,18.30
2022-11-20T17:48:50.271Z,18.58
2022-11-20T17:53:38.473Z,20.48
2022-11-20T17:58:24.135Z,23.65
2022-11-20T18:03:09.208Z,26.45
2022-11-20T18:07:58.646Z,25.90
2022-11-20T18:12:44.111Z,33.47
2022-11-20T18:17:29.372Z,40.90
2022-11-20T18:22:15.442Z,47.97
2022-11-20T18:27:03.331Z,71.03
2022-11-20T18:31:48.677Z,71.95
2022-11-20T18:36:35.289Z,63.97
2022-11-20T18:41:34.495Z,86.82
2022-11-20T18:46:22.458Z,75.78
2022-11-20T18:51:08.936Z,58.30
2022-11-20T18:55:53.931Z,45.20
2022-11-20T19:00:39.239Z,39.40
2022-11-20T19:05:27.178Z,25.48
2022-11-20T19:10:12.929Z,24.08
2022-11-20T19:14:58.247Z,27.15
2022-11-20T19:19:43.349Z,31.63
2022-11-20T19:24:31.331Z,49.63
2022-11-20T19:29:18.198Z,43.95
2022-11-20T19:34:04.911Z,43.60
2022-11-20T19:38:51.839Z,36.13
2022-11-20T19:43:40.123Z,38.95
2022-11-20T19:48:25.195Z,31.42
2022-11-20T19:53:11.744Z,33.42
2022-11-20T19:57:57.080Z,35.53
2022-11-20T20:02:44.756Z,32.63
2022-11-20T20:07:30.111Z,32.63
2022-11-20T20:12:15.127Z,34.10
2022-11-20T20:17:00.437Z,30.20
2022-11-20T20:21:48.272Z,29.83
2022-11-20T20:26:34.666Z,30.83
2022-11-20T20:31:21.338Z,30.00
2022-11-20T20:36:07.152Z,31.88
2022-11-20T20:40:55.100Z,32.35
2022-11-20T20:45:40.293Z,30.83
2022-11-20T20:50:25.942Z,36.63
2022-11-20T20:55:12.171Z,27.33
2022-11-20T21:00:00.105Z,21.33
2022-11-20T21:04:45.083Z,24.70
2022-11-20T21:09:30.396Z,44.25
2022-11-20T21:14:15.430Z,47.95
2022-11-20T21:19:03.349Z,37.83
2022-11-20T21:23:49.632Z,31.25
2022-11-20T21:28:35.460Z,30.45
2022-11-20T21:33:20.556Z,22.85
2022-11-20T21:38:08.513Z,21.27
2022-11-20T21:42:53.738Z,11.95
2022-11-20T21:47:39.035Z,9.43
2022-11-20T21:52:24.019Z,15.65
2022-11-20T21:57:11.896Z,11.52
2022-11-20T22:01:56.936Z,9.07
2022-11-20T22:06:42.263Z,12.82
2022-11-20T22:11:27.336Z,11.77
2022-11-20T22:16:15.694Z,11.13
2022-11-20T22:21:05.652Z,13.82
2022-11-20T22:25:50.996Z,29.67
2022-11-20T22:30:35.977Z,24.00
2022-11-20T22:35:23.896Z,20.58
2022-11-20T22:40:10.416Z,17.35
2022-11-20T22:44:55.674Z,14.50
2022-11-20T22:49:40.696Z,11.73
2022-11-20T22:54:28.579Z,18.42
2022-11-20T22:59:13.890Z,25.80
2022-11-20T23:04:00.958Z,14.65
2022-11-20T23:08:46.451Z,13.40
2022-11-20T23:13:34.368Z,24.38
2022-11-20T23:18:23.418Z,17.67
2022-11-20T23:23:08.446Z,11.43
2022-11-20T23:27:53.771Z,11.40
2022-11-20T23:32:41.421Z,12.40
2022-11-20T23:37:26.788Z,12.40
2022-11-20T23:42:11.833Z,12.77
2022-11-20T23:46:57.487Z,11.27
2022-11-20T23:51:45.090Z,9.82
2022-11-20T23:56:30.408Z,8.57
